sensor_id;sensor_type;location;lat;lon;timestamp;P1;durP1;ratioP1;P2;durP2;ratioP2
1446;SDS011;717;51.522;7.266;2023-02-27T00:00:14;2.37;;;2.17;;
1446;SDS011;717;51.522;7.266;2023-02-27T00:02:45;4.83;;;2.20;;
1446;SDS011;717;51.522;7.266;2023-02-27T00:05:19;3.83;;;2.20;;
1446;SDS011;717;51.522;7.266;2023-02-27T00:07:49;2.90;;;1.80;;
1446;SDS011;717;51.522;7.266;2023-02-27T00:10:18;4.23;;;2.23;;
1446;SDS011;717;51.522;7.266;2023-02-27T00:12:46;2.63;;;2.03;;
1446;SDS011;717;51.522;7.266;2023-02-27T00:15:16;5.60;;;2.37;;
1446;SDS011;717;51.522;7.266;2023-02-27T00:17:46;3.30;;;2.17;;
1446;SDS011;717;51.522;7.266;2023-02-27T00:20:15;5.67;;;2.33;;
1446;SDS011;717;51.522;7.266;2023-02-27T00:22:47;3.83;;;2.40;;
1446;SDS011;717;51.522;7.266;2023-02-27T00:25:16;4.33;;;2.40;;
1446;SDS011;717;51.522;7.266;2023-02-27T00:27:45;3.23;;;2.30;;
1446;SDS011;717;51.522;7.266;2023-02-27T00:30:14;3.27;;;2.20;;
1446;SDS011;717;51.522;7.266;2023-02-27T00:32:43;3.40;;;1.97;;
1446;SDS011;717;51.522;7.266;2023-02-27T00:35:11;2.10;;;1.90;;
1446;SDS011;717;51.522;7.266;2023-02-27T00:37:43;3.03;;;2.20;;
1446;SDS011;717;51.522;7.266;2023-02-27T00:40:11;3.10;;;2.13;;
1446;SDS011;717;51.522;7.266;2023-02-27T00:42:40;3.20;;;2.27;;
1446;SDS011;717;51.522;7.266;2023-02-27T00:45:10;4.37;;;2.20;;
1446;SDS011;717;51.522;7.266;2023-02-27T00:47:39;3.60;;;2.23;;
1446;SDS011;717;51.522;7.266;2023-02-27T00:50:08;3.37;;;2.07;;
1446;SDS011;717;51.522;7.266;2023-02-27T00:52:38;3.50;;;2.27;;
1446;SDS011;717;51.522;7.266;2023-02-27T00:55:10;4.47;;;2.63;;
1446;SDS011;717;51.522;7.266;2023-02-27T00:57:39;2.67;;;2.20;;
1446;SDS011;717;51.522;7.266;2023-02-27T01:00:08;5.00;;;2.40;;
1446;SDS011;717;51.522;7.266;2023-02-27T01:02:37;3.47;;;2.10;;
1446;SDS011;717;51.522;7.266;2023-02-27T01:05:06;3.40;;;2.10;;
1446;SDS011;717;51.522;7.266;2023-02-27T01:07:36;3.30;;;1.97;;
1446;SDS011;717;51.522;7.266;2023-02-27T01:10:04;3.43;;;2.30;;
1446;SDS011;717;51.522;7.266;2023-02-27T01:12:36;2.50;;;2.03;;
1446;SDS011;717;51.522;7.266;2023-02-27T01:15:06;2.43;;;1.70;;
1446;SDS011;717;51.522;7.266;2023-02-27T01:17:37;3.97;;;1.87;;
1446;SDS011;717;51.522;7.266;2023-02-27T01:20:07;3.33;;;1.53;;
1446;SDS011;717;51.522;7.266;2023-02-27T01:22:36;3.70;;;1.70;;
1446;SDS011;717;51.522;7.266;2023-02-27T01:25:05;5.33;;;1.93;;
1446;SDS011;717;51.522;7.266;2023-02-27T01:27:37;1.70;;;1.60;;
1446;SDS011;717;51.522;7.266;2023-02-27T01:30:07;2.80;;;1.90;;
1446;SDS011;717;51.522;7.266;2023-02-27T01:32:38;2.30;;;1.40;;
1446;SDS011;717;51.522;7.266;2023-02-27T01:35:07;1.77;;;1.67;;
1446;SDS011;717;51.522;7.266;2023-02-27T01:37:37;2.17;;;1.83;;
1446;SDS011;717;51.522;7.266;2023-02-27T01:40:06;2.33;;;1.57;;
1446;SDS011;717;51.522;7.266;2023-02-27T01:42:39;3.63;;;2.07;;
1446;SDS011;717;51.522;7.266;2023-02-27T01:45:19;2.87;;;2.00;;
1446;SDS011;717;51.522;7.266;2023-02-27T01:47:57;1.67;;;1.43;;
1446;SDS011;717;51.522;7.266;2023-02-27T01:50:30;3.63;;;1.80;;
1446;SDS011;717;51.522;7.266;2023-02-27T01:53:00;2.30;;;1.67;;
1446;SDS011;717;51.522;7.266;2023-02-27T01:55:30;3.07;;;1.83;;
1446;SDS011;717;51.522;7.266;2023-02-27T01:58:07;2.23;;;1.70;;
1446;SDS011;717;51.522;7.266;2023-02-27T02:00:38;4.23;;;1.60;;
1446;SDS011;717;51.522;7.266;2023-02-27T02:03:12;4.43;;;1.90;;
1446;SDS011;717;51.522;7.266;2023-02-27T02:05:45;4.60;;;1.87;;
1446;SDS011;717;51.522;7.266;2023-02-27T02:08:15;3.97;;;1.70;;
1446;SDS011;717;51.522;7.266;2023-02-27T02:10:46;2.23;;;1.67;;
1446;SDS011;717;51.522;7.266;2023-02-27T02:13:20;3.53;;;1.97;;
1446;SDS011;717;51.522;7.266;2023-02-27T02:15:51;2.90;;;1.60;;
1446;SDS011;717;51.522;7.266;2023-02-27T02:18:39;2.87;;;1.63;;
1446;SDS011;717;51.522;7.266;2023-02-27T02:24:39;2.53;;;1.97;;
1446;SDS011;717;51.522;7.266;2023-02-27T02:27:33;2.70;;;1.50;;
1446;SDS011;717;51.522;7.266;2023-02-27T02:30:35;1.93;;;1.73;;
1446;SDS011;717;51.522;7.266;2023-02-27T02:33:39;3.93;;;2.10;;
1446;SDS011;717;51.522;7.266;2023-02-27T02:39:34;4.27;;;2.10;;
1446;SDS011;717;51.522;7.266;2023-02-27T02:42:21;3.43;;;2.10;;
1446;SDS011;717;51.522;7.266;2023-02-27T02:44:55;2.00;;;1.90;;
1446;SDS011;717;51.522;7.266;2023-02-27T02:47:32;2.90;;;1.90;;
1446;SDS011;717;51.522;7.266;2023-02-27T02:50:08;2.37;;;1.90;;
1446;SDS011;717;51.522;7.266;2023-02-27T02:52:42;3.80;;;2.13;;
1446;SDS011;717;51.522;7.266;2023-02-27T02:55:23;2.80;;;1.97;;
1446;SDS011;717;51.522;7.266;2023-02-27T02:57:58;2.37;;;2.03;;
1446;SDS011;717;51.522;7.266;2023-02-27T03:00:31;2.27;;;1.97;;
1446;SDS011;717;51.522;7.266;2023-02-27T03:03:05;2.57;;;2.07;;
1446;SDS011;717;51.522;7.266;2023-02-27T03:05:40;4.17;;;2.03;;
1446;SDS011;717;51.522;7.266;2023-02-27T03:08:14;2.90;;;2.10;;
1446;SDS011;717;51.522;7.266;2023-02-27T03:10:49;3.53;;;1.87;;
1446;SDS011;717;51.522;7.266;2023-02-27T03:13:23;4.60;;;2.07;;
1446;SDS011;717;51.522;7.266;2023-02-27T03:15:58;4.20;;;2.00;;
1446;SDS011;717;51.522;7.266;2023-02-27T03:18:31;4.77;;;1.90;;
1446;SDS011;717;51.522;7.266;2023-02-27T03:21:06;2.37;;;1.63;;
1446;SDS011;717;51.522;7.266;2023-02-27T03:23:39;2.77;;;2.00;;
1446;SDS011;717;51.522;7.266;2023-02-27T03:26:14;3.90;;;2.40;;
1446;SDS011;717;51.522;7.266;2023-02-27T03:28:50;4.00;;;1.90;;
1446;SDS011;717;51.522;7.266;2023-02-27T03:31:24;4.67;;;1.70;;
1446;SDS011;717;51.522;7.266;2023-02-27T03:34:00;2.73;;;1.77;;
1446;SDS011;717;51.522;7.266;2023-02-27T03:36:37;4.13;;;1.77;;
1446;SDS011;717;51.522;7.266;2023-02-27T03:39:14;3.23;;;1.87;;
1446;SDS011;717;51.522;7.266;2023-02-27T03:41:53;3.43;;;2.10;;
1446;SDS011;717;51.522;7.266;2023-02-27T03:44:26;3.47;;;2.00;;
1446;SDS011;717;51.522;7.266;2023-02-27T03:46:59;3.70;;;2.03;;
1446;SDS011;717;51.522;7.266;2023-02-27T03:49:28;2.87;;;1.83;;
1446;SDS011;717;51.522;7.266;2023-02-27T03:51:56;2.00;;;1.80;;
1446;SDS011;717;51.522;7.266;2023-02-27T03:54:26;3.80;;;1.90;;
1446;SDS011;717;51.522;7.266;2023-02-27T03:57:03;4.50;;;2.00;;
1446;SDS011;717;51.522;7.266;2023-02-27T03:59:33;2.10;;;1.90;;
1446;SDS011;717;51.522;7.266;2023-02-27T04:02:04;3.03;;;1.50;;
1446;SDS011;717;51.522;7.266;2023-02-27T04:04:33;2.60;;;1.87;;
1446;SDS011;717;51.522;7.266;2023-02-27T04:07:04;3.10;;;2.00;;
1446;SDS011;717;51.522;7.266;2023-02-27T04:09:55;4.40;;;1.80;;
1446;SDS011;717;51.522;7.266;2023-02-27T04:12:41;3.90;;;2.27;;
1446;SDS011;717;51.522;7.266;2023-02-27T04:15:36;3.37;;;1.63;;
1446;SDS011;717;51.522;7.266;2023-02-27T04:18:16;3.37;;;1.80;;
1446;SDS011;717;51.522;7.266;2023-02-27T04:20:53;5.83;;;1.83;;
1446;SDS011;717;51.522;7.266;2023-02-27T04:23:27;1.83;;;1.40;;
1446;SDS011;717;51.522;7.266;2023-02-27T04:26:06;2.87;;;1.80;;
1446;SDS011;717;51.522;7.266;2023-02-27T04:28:46;1.87;;;1.70;;
1446;SDS011;717;51.522;7.266;2023-02-27T04:31:23;3.57;;;1.60;;
1446;SDS011;717;51.522;7.266;2023-02-27T04:33:58;3.33;;;1.73;;
1446;SDS011;717;51.522;7.266;2023-02-27T04:36:33;3.13;;;2.03;;
1446;SDS011;717;51.522;7.266;2023-02-27T04:39:07;3.90;;;1.90;;
1446;SDS011;717;51.522;7.266;2023-02-27T04:41:42;3.17;;;2.07;;
1446;SDS011;717;51.522;7.266;2023-02-27T04:44:17;2.93;;;2.00;;
1446;SDS011;717;51.522;7.266;2023-02-27T04:46:47;2.87;;;2.00;;
1446;SDS011;717;51.522;7.266;2023-02-27T04:49:19;2.60;;;2.13;;
1446;SDS011;717;51.522;7.266;2023-02-27T04:51:52;2.77;;;1.87;;
1446;SDS011;717;51.522;7.266;2023-02-27T04:54:25;3.30;;;2.17;;
1446;SDS011;717;51.522;7.266;2023-02-27T04:56:59;2.67;;;1.73;;
1446;SDS011;717;51.522;7.266;2023-02-27T04:59:35;3.63;;;2.60;;
1446;SDS011;717;51.522;7.266;2023-02-27T05:02:07;4.83;;;2.30;;
1446;SDS011;717;51.522;7.266;2023-02-27T05:04:40;3.33;;;2.20;;
1446;SDS011;717;51.522;7.266;2023-02-27T05:07:12;3.27;;;2.00;;
1446;SDS011;717;51.522;7.266;2023-02-27T05:09:45;2.53;;;2.20;;
1446;SDS011;717;51.522;7.266;2023-02-27T05:12:19;2.60;;;2.10;;
1446;SDS011;717;51.522;7.266;2023-02-27T05:14:56;3.23;;;2.00;;
1446;SDS011;717;51.522;7.266;2023-02-27T05:17:30;3.30;;;2.10;;
1446;SDS011;717;51.522;7.266;2023-02-27T05:20:03;4.53;;;2.10;;
1446;SDS011;717;51.522;7.266;2023-02-27T05:22:37;3.67;;;2.23;;
1446;SDS011;717;51.522;7.266;2023-02-27T05:25:12;3.63;;;2.20;;
1446;SDS011;717;51.522;7.266;2023-02-27T05:27:47;2.37;;;1.87;;
1446;SDS011;717;51.522;7.266;2023-02-27T05:30:22;3.40;;;2.10;;
1446;SDS011;717;51.522;7.266;2023-02-27T05:32:56;2.90;;;2.00;;
1446;SDS011;717;51.522;7.266;2023-02-27T05:35:30;4.03;;;2.20;;
1446;SDS011;717;51.522;7.266;2023-02-27T05:38:03;2.00;;;1.87;;
1446;SDS011;717;51.522;7.266;2023-02-27T05:40:38;4.67;;;1.90;;
1446;SDS011;717;51.522;7.266;2023-02-27T05:43:11;3.47;;;2.13;;
1446;SDS011;717;51.522;7.266;2023-02-27T05:45:49;3.37;;;2.00;;
1446;SDS011;717;51.522;7.266;2023-02-27T05:48:22;4.57;;;2.27;;
1446;SDS011;717;51.522;7.266;2023-02-27T05:50:54;4.77;;;2.33;;
1446;SDS011;717;51.522;7.266;2023-02-27T05:53:26;2.47;;;2.00;;
1446;SDS011;717;51.522;7.266;2023-02-27T05:55:59;3.57;;;2.10;;
1446;SDS011;717;51.522;7.266;2023-02-27T05:58:31;4.27;;;2.00;;
1446;SDS011;717;51.522;7.266;2023-02-27T06:01:07;3.90;;;2.17;;
1446;SDS011;717;51.522;7.266;2023-02-27T06:03:37;4.50;;;2.20;;
1446;SDS011;717;51.522;7.266;2023-02-27T06:06:11;2.40;;;2.13;;
1446;SDS011;717;51.522;7.266;2023-02-27T06:08:43;2.87;;;2.13;;
1446;SDS011;717;51.522;7.266;2023-02-27T06:11:12;3.13;;;1.87;;
1446;SDS011;717;51.522;7.266;2023-02-27T06:13:42;3.37;;;1.93;;
1446;SDS011;717;51.522;7.266;2023-02-27T06:16:13;3.60;;;2.10;;
1446;SDS011;717;51.522;7.266;2023-02-27T06:18:42;3.30;;;2.20;;
1446;SDS011;717;51.522;7.266;2023-02-27T06:21:11;4.67;;;2.20;;
1446;SDS011;717;51.522;7.266;2023-02-27T06:23:40;3.87;;;2.10;;
1446;SDS011;717;51.522;7.266;2023-02-27T06:26:09;4.00;;;2.03;;
1446;SDS011;717;51.522;7.266;2023-02-27T06:28:38;4.23;;;2.00;;
1446;SDS011;717;51.522;7.266;2023-02-27T06:31:07;3.13;;;2.17;;
1446;SDS011;717;51.522;7.266;2023-02-27T06:33:38;4.90;;;2.30;;
1446;SDS011;717;51.522;7.266;2023-02-27T06:36:06;3.77;;;2.20;;
1446;SDS011;717;51.522;7.266;2023-02-27T06:38:35;4.73;;;2.20;;
1446;SDS011;717;51.522;7.266;2023-02-27T06:41:04;3.33;;;1.80;;
1446;SDS011;717;51.522;7.266;2023-02-27T06:43:33;5.10;;;2.10;;
1446;SDS011;717;51.522;7.266;2023-02-27T06:46:01;2.10;;;1.70;;
1446;SDS011;717;51.522;7.266;2023-02-27T06:48:30;4.40;;;2.43;;
1446;SDS011;717;51.522;7.266;2023-02-27T06:51:01;3.77;;;2.30;;
1446;SDS011;717;51.522;7.266;2023-02-27T06:53:30;2.57;;;2.00;;
1446;SDS011;717;51.522;7.266;2023-02-27T06:55:59;4.53;;;2.77;;
1446;SDS011;717;51.522;7.266;2023-02-27T06:58:28;3.43;;;2.07;;
1446;SDS011;717;51.522;7.266;2023-02-27T07:00:57;4.63;;;2.40;;
1446;SDS011;717;51.522;7.266;2023-02-27T07:03:26;4.60;;;2.40;;
1446;SDS011;717;51.522;7.266;2023-02-27T07:05:55;4.33;;;2.57;;
1446;SDS011;717;51.522;7.266;2023-02-27T07:08:26;5.10;;;2.67;;
1446;SDS011;717;51.522;7.266;2023-02-27T07:10:55;4.03;;;2.43;;
1446;SDS011;717;51.522;7.266;2023-02-27T07:13:24;4.03;;;2.70;;
1446;SDS011;717;51.522;7.266;2023-02-27T07:15:52;5.93;;;2.67;;
1446;SDS011;717;51.522;7.266;2023-02-27T07:18:21;5.37;;;3.00;;
1446;SDS011;717;51.522;7.266;2023-02-27T07:20:49;4.03;;;2.83;;
1446;SDS011;717;51.522;7.266;2023-02-27T07:23:19;6.67;;;3.23;;
1446;SDS011;717;51.522;7.266;2023-02-27T07:25:50;6.43;;;2.90;;
1446;SDS011;717;51.522;7.266;2023-02-27T07:28:19;4.47;;;2.70;;
1446;SDS011;717;51.522;7.266;2023-02-27T07:30:47;3.70;;;2.73;;
1446;SDS011;717;51.522;7.266;2023-02-27T07:33:16;5.23;;;2.80;;
1446;SDS011;717;51.522;7.266;2023-02-27T07:35:45;5.17;;;2.60;;
1446;SDS011;717;51.522;7.266;2023-02-27T07:38:13;4.70;;;2.70;;
1446;SDS011;717;51.522;7.266;2023-02-27T07:40:43;4.43;;;2.80;;
1446;SDS011;717;51.522;7.266;2023-02-27T07:43:14;4.13;;;2.30;;
1446;SDS011;717;51.522;7.266;2023-02-27T07:45:43;4.70;;;3.03;;
1446;SDS011;717;51.522;7.266;2023-02-27T07:48:12;3.57;;;2.73;;
1446;SDS011;717;51.522;7.266;2023-02-27T07:50:40;5.40;;;2.87;;
1446;SDS011;717;51.522;7.266;2023-02-27T07:53:09;4.80;;;2.73;;
1446;SDS011;717;51.522;7.266;2023-02-27T07:55:37;4.83;;;2.90;;
1446;SDS011;717;51.522;7.266;2023-02-27T07:58:06;4.73;;;3.07;;
1446;SDS011;717;51.522;7.266;2023-02-27T08:00:37;4.00;;;2.90;;
1446;SDS011;717;51.522;7.266;2023-02-27T08:03:06;3.70;;;3.00;;
1446;SDS011;717;51.522;7.266;2023-02-27T08:05:38;3.87;;;2.63;;
1446;SDS011;717;51.522;7.266;2023-02-27T08:08:06;4.67;;;2.80;;
1446;SDS011;717;51.522;7.266;2023-02-27T08:10:35;5.90;;;3.10;;
1446;SDS011;717;51.522;7.266;2023-02-27T08:13:03;6.87;;;3.00;;
1446;SDS011;717;51.522;7.266;2023-02-27T08:15:32;3.93;;;3.10;;
1446;SDS011;717;51.522;7.266;2023-02-27T08:18:03;4.60;;;3.17;;
1446;SDS011;717;51.522;7.266;2023-02-27T08:20:32;4.77;;;3.20;;
1446;SDS011;717;51.522;7.266;2023-02-27T08:23:01;5.37;;;3.20;;
1446;SDS011;717;51.522;7.266;2023-02-27T08:25:30;5.70;;;3.00;;
1446;SDS011;717;51.522;7.266;2023-02-27T08:27:59;5.47;;;3.00;;
1446;SDS011;717;51.522;7.266;2023-02-27T08:30:28;5.00;;;3.47;;
1446;SDS011;717;51.522;7.266;2023-02-27T08:32:57;6.47;;;3.27;;
1446;SDS011;717;51.522;7.266;2023-02-27T08:35:28;4.33;;;3.37;;
1446;SDS011;717;51.522;7.266;2023-02-27T08:37:57;5.33;;;3.30;;
1446;SDS011;717;51.522;7.266;2023-02-27T08:40:26;4.70;;;3.43;;
1446;SDS011;717;51.522;7.266;2023-02-27T08:42:55;5.67;;;3.80;;
1446;SDS011;717;51.522;7.266;2023-02-27T08:45:23;4.27;;;3.63;;
1446;SDS011;717;51.522;7.266;2023-02-27T08:47:52;6.80;;;3.93;;
1446;SDS011;717;51.522;7.266;2023-02-27T08:50:20;6.03;;;3.60;;
1446;SDS011;717;51.522;7.266;2023-02-27T08:52:52;3.73;;;3.20;;
1446;SDS011;717;51.522;7.266;2023-02-27T08:55:20;5.93;;;3.00;;
1446;SDS011;717;51.522;7.266;2023-02-27T08:57:49;4.27;;;2.80;;
1446;SDS011;717;51.522;7.266;2023-02-27T09:00:18;4.83;;;2.93;;
1446;SDS011;717;51.522;7.266;2023-02-27T09:02:48;5.00;;;2.80;;
1446;SDS011;717;51.522;7.266;2023-02-27T09:05:16;5.20;;;2.90;;
1446;SDS011;717;51.522;7.266;2023-02-27T09:07:47;4.10;;;2.70;;
1446;SDS011;717;51.522;7.266;2023-02-27T09:10:18;4.10;;;2.73;;
1446;SDS011;717;51.522;7.266;2023-02-27T09:12:47;6.23;;;3.17;;
1446;SDS011;717;51.522;7.266;2023-02-27T09:15:16;4.93;;;2.93;;
1446;SDS011;717;51.522;7.266;2023-02-27T09:17:44;4.87;;;2.67;;
1446;SDS011;717;51.522;7.266;2023-02-27T09:20:13;4.43;;;2.80;;
1446;SDS011;717;51.522;7.266;2023-02-27T09:22:42;5.07;;;2.20;;
1446;SDS011;717;51.522;7.266;2023-02-27T09:25:11;4.30;;;2.33;;
1446;SDS011;717;51.522;7.266;2023-02-27T09:27:42;4.10;;;2.40;;
1446;SDS011;717;51.522;7.266;2023-02-27T09:30:11;4.70;;;2.27;;
1446;SDS011;717;51.522;7.266;2023-02-27T09:32:40;2.77;;;2.00;;
1446;SDS011;717;51.522;7.266;2023-02-27T09:35:09;3.03;;;1.93;;
1446;SDS011;717;51.522;7.266;2023-02-27T09:37:38;5.27;;;2.00;;
1446;SDS011;717;51.522;7.266;2023-02-27T09:40:07;2.87;;;1.77;;
1446;SDS011;717;51.522;7.266;2023-02-27T09:42:46;7.27;;;2.50;;
1446;SDS011;717;51.522;7.266;2023-02-27T09:45:17;3.13;;;2.27;;
1446;SDS011;717;51.522;7.266;2023-02-27T09:47:50;4.63;;;2.20;;
1446;SDS011;717;51.522;7.266;2023-02-27T09:53:11;4.17;;;1.97;;
1446;SDS011;717;51.522;7.266;2023-02-27T09:55:43;2.73;;;1.70;;
1446;SDS011;717;51.522;7.266;2023-02-27T09:58:19;2.93;;;2.10;;
1446;SDS011;717;51.522;7.266;2023-02-27T10:01:07;3.90;;;2.43;;
1446;SDS011;717;51.522;7.266;2023-02-27T10:03:45;5.03;;;2.47;;
1446;SDS011;717;51.522;7.266;2023-02-27T10:06:29;6.57;;;2.70;;
1446;SDS011;717;51.522;7.266;2023-02-27T10:09:07;4.70;;;2.70;;
1446;SDS011;717;51.522;7.266;2023-02-27T10:11:50;6.20;;;2.67;;
1446;SDS011;717;51.522;7.266;2023-02-27T10:14:33;4.27;;;2.90;;
1446;SDS011;717;51.522;7.266;2023-02-27T10:17:10;5.30;;;3.33;;
1446;SDS011;717;51.522;7.266;2023-02-27T10:19:45;4.43;;;3.33;;
1446;SDS011;717;51.522;7.266;2023-02-27T10:22:19;6.37;;;3.57;;
1446;SDS011;717;51.522;7.266;2023-02-27T10:24:54;6.83;;;3.30;;
1446;SDS011;717;51.522;7.266;2023-02-27T10:27:28;3.90;;;2.90;;
1446;SDS011;717;51.522;7.266;2023-02-27T10:30:15;5.77;;;2.60;;
1446;SDS011;717;51.522;7.266;2023-02-27T10:32:48;4.13;;;2.53;;
1446;SDS011;717;51.522;7.266;2023-02-27T10:35:21;4.17;;;2.33;;
1446;SDS011;717;51.522;7.266;2023-02-27T10:37:56;2.67;;;2.00;;
1446;SDS011;717;51.522;7.266;2023-02-27T10:40:27;4.63;;;1.97;;
1446;SDS011;717;51.522;7.266;2023-02-27T10:42:58;4.63;;;2.23;;
1446;SDS011;717;51.522;7.266;2023-02-27T10:45:31;3.63;;;1.50;;
1446;SDS011;717;51.522;7.266;2023-02-27T10:48:00;2.80;;;1.20;;
1446;SDS011;717;51.522;7.266;2023-02-27T10:50:30;2.43;;;1.43;;
1446;SDS011;717;51.522;7.266;2023-02-27T10:53:00;3.20;;;1.57;;
1446;SDS011;717;51.522;7.266;2023-02-27T10:55:31;4.47;;;2.30;;
1446;SDS011;717;51.522;7.266;2023-02-27T10:58:02;4.10;;;1.40;;
1446;SDS011;717;51.522;7.266;2023-02-27T11:00:37;4.33;;;1.90;;
1446;SDS011;717;51.522;7.266;2023-02-27T11:03:16;3.73;;;1.50;;
1446;SDS011;717;51.522;7.266;2023-02-27T11:05:51;2.77;;;1.30;;
1446;SDS011;717;51.522;7.266;2023-02-27T11:08:22;2.80;;;1.43;;
1446;SDS011;717;51.522;7.266;2023-02-27T11:10:54;3.17;;;1.83;;
1446;SDS011;717;51.522;7.266;2023-02-27T11:13:24;4.33;;;1.57;;
1446;SDS011;717;51.522;7.266;2023-02-27T11:16:10;4.50;;;1.30;;
1446;SDS011;717;51.522;7.266;2023-02-27T11:18:41;4.00;;;1.10;;
1446;SDS011;717;51.522;7.266;2023-02-27T11:21:16;2.37;;;1.10;;
1446;SDS011;717;51.522;7.266;2023-02-27T11:23:51;1.43;;;1.00;;
1446;SDS011;717;51.522;7.266;2023-02-27T11:26:25;3.17;;;1.27;;
1446;SDS011;717;51.522;7.266;2023-02-27T11:29:09;2.27;;;1.30;;
1446;SDS011;717;51.522;7.266;2023-02-27T11:31:49;2.50;;;1.20;;
1446;SDS011;717;51.522;7.266;2023-02-27T11:34:21;2.60;;;1.40;;
1446;SDS011;717;51.522;7.266;2023-02-27T11:36:56;2.00;;;1.13;;
1446;SDS011;717;51.522;7.266;2023-02-27T11:39:29;2.30;;;1.43;;
1446;SDS011;717;51.522;7.266;2023-02-27T11:42:06;2.23;;;1.70;;
1446;SDS011;717;51.522;7.266;2023-02-27T11:44:53;2.53;;;1.43;;
1446;SDS011;717;51.522;7.266;2023-02-27T11:47:28;3.00;;;1.37;;
1446;SDS011;717;51.522;7.266;2023-02-27T11:50:04;4.00;;;1.47;;
1446;SDS011;717;51.522;7.266;2023-02-27T11:52:52;2.93;;;1.40;;
1446;SDS011;717;51.522;7.266;2023-02-27T11:55:25;3.57;;;1.40;;
1446;SDS011;717;51.522;7.266;2023-02-27T11:57:57;3.20;;;1.87;;
1446;SDS011;717;51.522;7.266;2023-02-27T12:00:29;3.17;;;1.40;;
1446;SDS011;717;51.522;7.266;2023-02-27T12:03:09;1.60;;;0.93;;
1446;SDS011;717;51.522;7.266;2023-02-27T12:05:44;1.87;;;1.17;;
1446;SDS011;717;51.522;7.266;2023-02-27T12:08:18;3.40;;;1.50;;
1446;SDS011;717;51.522;7.266;2023-02-27T12:10:54;2.42;;;1.40;;
1446;SDS011;717;51.522;7.266;2023-02-27T12:13:27;3.73;;;1.40;;
1446;SDS011;717;51.522;7.266;2023-02-27T12:15:59;1.80;;;1.43;;
1446;SDS011;717;51.522;7.266;2023-02-27T12:18:37;2.92;;;1.75;;
1446;SDS011;717;51.522;7.266;2023-02-27T12:21:12;2.00;;;1.60;;
1446;SDS011;717;51.522;7.266;2023-02-27T12:23:44;2.50;;;1.20;;
1446;SDS011;717;51.522;7.266;2023-02-27T12:26:17;3.07;;;1.27;;
1446;SDS011;717;51.522;7.266;2023-02-27T12:28:52;3.80;;;1.50;;
1446;SDS011;717;51.522;7.266;2023-02-27T12:34:26;3.00;;;1.23;;
1446;SDS011;717;51.522;7.266;2023-02-27T12:37:04;2.60;;;1.35;;
1446;SDS011;717;51.522;7.266;2023-02-27T12:39:37;4.13;;;1.40;;
1446;SDS011;717;51.522;7.266;2023-02-27T12:42:12;2.67;;;1.40;;
1446;SDS011;717;51.522;7.266;2023-02-27T12:47:57;2.92;;;1.40;;
1446;SDS011;717;51.522;7.266;2023-02-27T12:50:47;2.97;;;1.20;;
1446;SDS011;717;51.522;7.266;2023-02-27T12:53:30;2.20;;;1.13;;
1446;SDS011;717;51.522;7.266;2023-02-27T12:56:16;3.85;;;1.20;;
1446;SDS011;717;51.522;7.266;2023-02-27T12:58:49;2.58;;;1.27;;
1446;SDS011;717;51.522;7.266;2023-02-27T13:01:27;5.40;;;1.77;;
1446;SDS011;717;51.522;7.266;2023-02-27T13:04:07;2.72;;;1.98;;
1446;SDS011;717;51.522;7.266;2023-02-27T13:06:50;5.53;;;2.10;;
1446;SDS011;717;51.522;7.266;2023-02-27T13:09:23;2.97;;;1.33;;
1446;SDS011;717;51.522;7.266;2023-02-27T13:12:02;2.20;;;1.00;;
1446;SDS011;717;51.522;7.266;2023-02-27T13:14:44;1.88;;;1.33;;
1446;SDS011;717;51.522;7.266;2023-02-27T13:17:16;4.93;;;1.58;;
1446;SDS011;717;51.522;7.266;2023-02-27T13:19:51;2.03;;;1.52;;
1446;SDS011;717;51.522;7.266;2023-02-27T13:22:30;3.35;;;1.67;;
1446;SDS011;717;51.522;7.266;2023-02-27T13:25:06;3.05;;;1.60;;
1446;SDS011;717;51.522;7.266;2023-02-27T13:27:42;3.63;;;1.83;;
1446;SDS011;717;51.522;7.266;2023-02-27T13:30:13;2.70;;;2.00;;
1446;SDS011;717;51.522;7.266;2023-02-27T13:32:51;2.88;;;1.63;;
1446;SDS011;717;51.522;7.266;2023-02-27T13:35:27;3.55;;;1.80;;
1446;SDS011;717;51.522;7.266;2023-02-27T13:38:27;3.97;;;1.60;;
1446;SDS011;717;51.522;7.266;2023-02-27T13:41:08;3.35;;;1.63;;
1446;SDS011;717;51.522;7.266;2023-02-27T13:53:12;2.00;;;1.75;;
1446;SDS011;717;51.522;7.266;2023-02-27T13:55:45;3.30;;;1.90;;
1446;SDS011;717;51.522;7.266;2023-02-27T13:58:17;4.28;;;1.77;;
1446;SDS011;717;51.522;7.266;2023-02-27T14:00:56;2.58;;;1.50;;
1446;SDS011;717;51.522;7.266;2023-02-27T14:03:27;2.25;;;1.60;;
1446;SDS011;717;51.522;7.266;2023-02-27T14:06:00;2.33;;;1.10;;
1446;SDS011;717;51.522;7.266;2023-02-27T14:08:35;2.58;;;1.25;;
1446;SDS011;717;51.522;7.266;2023-02-27T14:11:15;2.03;;;1.38;;
1446;SDS011;717;51.522;7.266;2023-02-27T14:14:00;1.38;;;1.27;;
1446;SDS011;717;51.522;7.266;2023-02-27T14:25:27;2.92;;;1.80;;
1446;SDS011;717;51.522;7.266;2023-02-27T14:27:59;4.93;;;2.50;;
1446;SDS011;717;51.522;7.266;2023-02-27T14:30:31;2.83;;;1.25;;
1446;SDS011;717;51.522;7.266;2023-02-27T14:33:05;3.70;;;1.35;;
1446;SDS011;717;51.522;7.266;2023-02-27T14:35:43;2.50;;;1.60;;
1446;SDS011;717;51.522;7.266;2023-02-27T14:38:14;2.15;;;1.23;;
1446;SDS011;717;51.522;7.266;2023-02-27T14:40:50;3.30;;;1.20;;
1446;SDS011;717;51.522;7.266;2023-02-27T14:43:28;1.92;;;1.30;;
1446;SDS011;717;51.522;7.266;2023-02-27T14:48:51;2.15;;;1.33;;
1446;SDS011;717;51.522;7.266;2023-02-27T14:51:22;3.50;;;1.50;;
1446;SDS011;717;51.522;7.266;2023-02-27T14:54:01;2.45;;;1.40;;
1446;SDS011;717;51.522;7.266;2023-02-27T14:56:34;2.58;;;1.30;;
1446;SDS011;717;51.522;7.266;2023-02-27T14:59:08;2.78;;;1.48;;
1446;SDS011;717;51.522;7.266;2023-02-27T15:01:49;1.92;;;1.42;;
1446;SDS011;717;51.522;7.266;2023-02-27T15:04:18;2.47;;;1.67;;
1446;SDS011;717;51.522;7.266;2023-02-27T15:06:49;2.10;;;1.50;;
1446;SDS011;717;51.522;7.266;2023-02-27T15:09:20;2.88;;;1.23;;
1446;SDS011;717;51.522;7.266;2023-02-27T15:11:54;2.55;;;1.25;;
1446;SDS011;717;51.522;7.266;2023-02-27T15:14:26;2.97;;;1.42;;
1446;SDS011;717;51.522;7.266;2023-02-27T15:16:58;2.75;;;1.80;;
1446;SDS011;717;51.522;7.266;2023-02-27T15:19:27;3.22;;;1.38;;
1446;SDS011;717;51.522;7.266;2023-02-27T15:21:57;1.63;;;1.15;;
1446;SDS011;717;51.522;7.266;2023-02-27T15:24:28;4.10;;;1.90;;
1446;SDS011;717;51.522;7.266;2023-02-27T15:27:02;3.03;;;1.42;;
1446;SDS011;717;51.522;7.266;2023-02-27T15:29:34;1.98;;;1.33;;
1446;SDS011;717;51.522;7.266;2023-02-27T15:32:06;1.75;;;1.60;;
1446;SDS011;717;51.522;7.266;2023-02-27T15:34:42;2.25;;;1.45;;
1446;SDS011;717;51.522;7.266;2023-02-27T15:37:14;1.88;;;1.33;;
1446;SDS011;717;51.522;7.266;2023-02-27T15:39:48;2.50;;;1.30;;
1446;SDS011;717;51.522;7.266;2023-02-27T15:42:22;3.53;;;1.10;;
1446;SDS011;717;51.522;7.266;2023-02-27T15:44:52;3.00;;;1.23;;
1446;SDS011;717;51.522;7.266;2023-02-27T15:47:23;1.38;;;1.20;;
1446;SDS011;717;51.522;7.266;2023-02-27T15:49:55;2.63;;;1.40;;
1446;SDS011;717;51.522;7.266;2023-02-27T15:52:30;2.60;;;0.98;;
1446;SDS011;717;51.522;7.266;2023-02-27T15:55:11;2.08;;;1.05;;
1446;SDS011;717;51.522;7.266;2023-02-27T15:57:44;2.00;;;1.40;;
1446;SDS011;717;51.522;7.266;2023-02-27T16:00:13;3.05;;;1.65;;
1446;SDS011;717;51.522;7.266;2023-02-27T16:02:45;3.20;;;1.23;;
1446;SDS011;717;51.522;7.266;2023-02-27T16:05:16;1.83;;;1.05;;
1446;SDS011;717;51.522;7.266;2023-02-27T16:07:53;1.90;;;1.00;;
1446;SDS011;717;51.522;7.266;2023-02-27T16:10:24;1.90;;;0.77;;
1446;SDS011;717;51.522;7.266;2023-02-27T16:12:58;3.37;;;1.10;;
1446;SDS011;717;51.522;7.266;2023-02-27T16:15:28;2.30;;;1.15;;
1446;SDS011;717;51.522;7.266;2023-02-27T16:17:59;2.42;;;1.10;;
1446;SDS011;717;51.522;7.266;2023-02-27T16:20:35;1.63;;;0.90;;
1446;SDS011;717;51.522;7.266;2023-02-27T16:23:06;5.18;;;1.38;;
1446;SDS011;717;51.522;7.266;2023-02-27T16:25:58;1.40;;;0.82;;
1446;SDS011;717;51.522;7.266;2023-02-27T16:28:33;3.25;;;1.00;;
1446;SDS011;717;51.522;7.266;2023-02-27T16:31:04;1.97;;;1.00;;
1446;SDS011;717;51.522;7.266;2023-02-27T16:33:45;1.97;;;0.90;;
1446;SDS011;717;51.522;7.266;2023-02-27T16:36:15;6.17;;;1.27;;
1446;SDS011;717;51.522;7.266;2023-02-27T16:38:45;2.65;;;1.10;;
1446;SDS011;717;51.522;7.266;2023-02-27T16:41:14;2.00;;;1.07;;
1446;SDS011;717;51.522;7.266;2023-02-27T16:43:46;2.33;;;1.20;;